This is the latest recevied weather packets stored in our database for station/object AA7F. If no packets are shown the sender has not sent any weather packets the latest 1 day(s).
| Time | Temp. | Humidity | Pressure | Rain* | Wind** | Luminosity | Snow |
|---|---|---|---|---|---|---|---|
| 1778038927 | 17.22° C | 44% | 1010 hPa | 0 mm | - | 0 W/m² | - |
| 1778038624 | 17.78° C | 43% | 1010 hPa | 0 mm | - | 0 W/m² | - |
| 1778038321 | 18.89° C | 41% | 1009.9 hPa | 0 mm | - | 0 W/m² | - |
| 1778038018 | 18.33° C | 41% | 1009.7 hPa | 0 mm | - | 0 W/m² | - |
| 1778037715 | 19.44° C | 39% | 1009.8 hPa | 0 mm | - | 0 W/m² | - |
| 1778037108 | 19.44° C | 38% | 1009.6 hPa | 0 mm | - | 0 W/m² | - |
| 1778036807 | 20° C | 36% | 1009.5 hPa | 0 mm | - | 0 W/m² | - |
| 1778036504 | 20.56° C | 37% | 1009.4 hPa | 0 mm | - | 2 W/m² | - |
| 1778036201 | 20.56° C | 36% | 1009.5 hPa | 0 mm | - | 3 W/m² | - |
| 1778035290 | 20° C | 39% | 1009.3 hPa | 0 mm | - | 12 W/m² | - |
| 1778034987 | 20.56° C | 39% | 1009.1 hPa | 0 mm | - | 14 W/m² | - |
| 1778034684 | 20.56° C | 39% | 1009.1 hPa | 0 mm | - | 18 W/m² | - |
| 1778034381 | 21.11° C | 38% | 1009.3 hPa | 0 mm | - | 21 W/m² | - |
| 1778034079 | 21.67° C | 37% | 1009.3 hPa | 0 mm | - | 24 W/m² | - |
| 1778033170 | 22.22° C | 36% | 1008.9 hPa | 0 mm | - | 33 W/m² | - |
| 1778031960 | 23.33° C | 33% | 1008.8 hPa | 0 mm | - | 38 W/m² | - |
| 1778031655 | 23.33° C | 37% | 1008.7 hPa | 0 mm | - | 39 W/m² | - |
| 1778031354 | 23.89° C | 35% | 1008.7 hPa | 0 mm | - | 40 W/m² | - |
| 1778031050 | 23.89° C | 34% | 1008.7 hPa | 0 mm | - | 104 W/m² | - |
| 1778030746 | 23.89° C | 34% | 1008.7 hPa | 0 mm | - | 42 W/m² | - |
| 1778030443 | 23.89° C | 34% | 1008.6 hPa | 0 mm | - | 44 W/m² | - |
| 1778030141 | 23.89° C | 32% | 1008.5 hPa | 0 mm | - | 71 W/m² | - |
| 1778029227 | 24.44° C | 30% | 1008.4 hPa | 0 mm | - | 182 W/m² | - |
| 1778028924 | 24.44° C | 30% | 1008.4 hPa | 0 mm | - | 201 W/m² | - |
| 1778028620 | 24.44° C | 31% | 1008.3 hPa | 0 mm | - | 67 W/m² | - |
* Rain latest hour (hover to see other rain measurements)
** Current wind speed in m/s (hover to see current wind gust speed)